sensor_id;sensor_type;location;lat;lon;timestamp;pressure;altitude;pressure_sealevel;temperature;humidity
70506;BME280;58032;49.820;6.274;2022-08-03T06:14:49;97688.47;;;21.81;57.83
70506;BME280;58032;49.820;6.274;2022-08-03T06:17:19;97677.06;;;22.01;57.57
70506;BME280;58032;49.820;6.274;2022-08-03T06:19:46;97682.06;;;21.28;60.00
70506;BME280;58032;49.820;6.274;2022-08-03T06:22:13;97677.88;;;21.71;58.05
70506;BME280;58032;49.820;6.274;2022-08-03T06:24:40;97682.78;;;21.40;57.98
70506;BME280;58032;49.820;6.274;2022-08-03T06:27:07;97681.13;;;22.60;55.94
70506;BME280;58032;49.820;6.274;2022-08-03T06:29:34;97679.03;;;22.42;55.69
70506;BME280;58032;49.820;6.274;2022-08-03T06:32:01;97684.59;;;22.53;55.91
70506;BME280;58032;49.820;6.274;2022-08-03T06:34:28;97683.66;;;21.95;56.63
70506;BME280;58032;49.820;6.274;2022-08-03T06:36:55;97681.88;;;22.67;56.22
70506;BME280;58032;49.820;6.274;2022-08-03T06:39:25;97686.19;;;23.50;53.76
70506;BME280;58032;49.820;6.274;2022-08-03T06:41:52;97684.94;;;24.10;51.40
70506;BME280;58032;49.820;6.274;2022-08-03T06:44:19;97677.31;;;23.99;52.33
70506;BME280;58032;49.820;6.274;2022-08-03T06:46:46;97676.97;;;23.38;53.49
70506;BME280;58032;49.820;6.274;2022-08-03T06:49:13;97683.88;;;23.10;54.33
70506;BME280;58032;49.820;6.274;2022-08-03T06:51:40;97682.19;;;23.01;54.84
70506;BME280;58032;49.820;6.274;2022-08-03T06:54:07;97674.78;;;24.49;50.85
70506;BME280;58032;49.820;6.274;2022-08-03T06:56:34;97681.41;;;23.71;51.66
70506;BME280;58032;49.820;6.274;2022-08-03T06:59:01;97687.28;;;24.79;50.31
70506;BME280;58032;49.820;6.274;2022-08-03T07:01:28;97687.41;;;23.87;51.08
70506;BME280;58032;49.820;6.274;2022-08-03T07:03:55;97680.66;;;24.30;50.12
70506;BME280;58032;49.820;6.274;2022-08-03T07:06:22;97677.44;;;24.34;49.01
70506;BME280;58032;49.820;6.274;2022-08-03T07:08:49;97674.91;;;24.84;48.49
70506;BME280;58032;49.820;6.274;2022-08-03T07:11:18;97677.28;;;25.07;47.45
70506;BME280;58032;49.820;6.274;2022-08-03T07:13:45;97678.16;;;25.50;45.71
70506;BME280;58032;49.820;6.274;2022-08-03T07:16:12;97681.56;;;26.33;43.81
70506;BME280;58032;49.820;6.274;2022-08-03T07:18:39;97683.34;;;26.15;44.01
70506;BME280;58032;49.820;6.274;2022-08-03T07:21:06;97684.94;;;25.73;45.03
70506;BME280;58032;49.820;6.274;2022-08-03T07:23:37;97691.88;;;26.20;43.52
70506;BME280;58032;49.820;6.274;2022-08-03T07:26:04;97692.44;;;26.48;43.29
70506;BME280;58032;49.820;6.274;2022-08-03T07:28:31;97690.72;;;28.09;38.79
70506;BME280;58032;49.820;6.274;2022-08-03T07:30:58;97685.41;;;28.62;38.58
70506;BME280;58032;49.820;6.274;2022-08-03T07:33:25;97685.22;;;29.24;36.62
70506;BME280;58032;49.820;6.274;2022-08-03T07:35:52;97685.03;;;28.65;37.53
70506;BME280;58032;49.820;6.274;2022-08-03T07:38:19;97685.66;;;30.11;34.44
70506;BME280;58032;49.820;6.274;2022-08-03T07:40:46;97687.50;;;30.42;34.57
70506;BME280;58032;49.820;6.274;2022-08-03T07:43:13;97681.19;;;31.23;33.30
70506;BME280;58032;49.820;6.274;2022-08-03T07:45:40;97676.22;;;31.34;32.97
70506;BME280;58032;49.820;6.274;2022-08-03T07:48:07;97678.66;;;31.82;33.07
70506;BME280;58032;49.820;6.274;2022-08-03T07:50:37;97682.06;;;31.16;33.56
70506;BME280;58032;49.820;6.274;2022-08-03T07:53:04;97680.28;;;31.03;33.13
70506;BME280;58032;49.820;6.274;2022-08-03T07:55:32;97683.38;;;30.88;33.00
70506;BME280;58032;49.820;6.274;2022-08-03T08:00:32;97680.75;;;29.63;36.53
70506;BME280;58032;49.820;6.274;2022-08-03T08:03:00;97680.03;;;32.28;31.93
70506;BME280;58032;49.820;6.274;2022-08-03T08:05:27;97677.94;;;32.39;30.63
70506;BME280;58032;49.820;6.274;2022-08-03T08:07:55;97682.91;;;33.05;32.31
70506;BME280;58032;49.820;6.274;2022-08-03T08:10:22;97684.50;;;31.37;33.95
70506;BME280;58032;49.820;6.274;2022-08-03T08:12:49;97678.38;;;32.35;30.73
70506;BME280;58032;49.820;6.274;2022-08-03T08:15:17;97683.34;;;32.72;31.45
70506;BME280;58032;49.820;6.274;2022-08-03T08:20:16;97682.97;;;32.28;32.04
70506;BME280;58032;49.820;6.274;2022-08-03T08:22:44;97676.69;;;30.95;33.33
70506;BME280;58032;49.820;6.274;2022-08-03T08:25:11;97675.34;;;32.72;30.75
70506;BME280;58032;49.820;6.274;2022-08-03T08:27:47;97667.94;;;32.42;31.34
70506;BME280;58032;49.820;6.274;2022-08-03T08:30:17;97669.50;;;34.02;28.10
70506;BME280;58032;49.820;6.274;2022-08-03T08:32:45;97671.06;;;32.63;30.48
70506;BME280;58032;49.820;6.274;2022-08-03T08:35:12;97670.13;;;32.51;30.85
70506;BME280;58032;49.820;6.274;2022-08-03T08:37:40;97670.59;;;32.00;30.93
70506;BME280;58032;49.820;6.274;2022-08-03T08:40:07;97662.91;;;32.52;30.85
70506;BME280;58032;49.820;6.274;2022-08-03T08:42:39;97666.81;;;32.17;31.29
70506;BME280;58032;49.820;6.274;2022-08-03T08:45:10;97662.00;;;33.28;28.33
70506;BME280;58032;49.820;6.274;2022-08-03T08:47:39;97667.09;;;31.20;31.67
70506;BME280;58032;49.820;6.274;2022-08-03T08:50:07;97665.84;;;32.72;30.63
70506;BME280;58032;49.820;6.274;2022-08-03T08:52:36;97660.41;;;33.98;28.81
70506;BME280;58032;49.820;6.274;2022-08-03T08:55:07;97669.09;;;34.17;27.93
70506;BME280;58032;49.820;6.274;2022-08-03T08:57:37;97666.91;;;35.60;26.42
70506;BME280;58032;49.820;6.274;2022-08-03T09:00:10;97663.22;;;33.35;27.98
70506;BME280;58032;49.820;6.274;2022-08-03T09:02:41;97668.19;;;34.90;25.81
70506;BME280;58032;49.820;6.274;2022-08-03T09:05:13;97665.16;;;34.99;26.02
70506;BME280;58032;49.820;6.274;2022-08-03T09:07:41;97664.97;;;34.42;25.66
70506;BME280;58032;49.820;6.274;2022-08-03T09:10:12;97662.41;;;33.64;27.97
70506;BME280;58032;49.820;6.274;2022-08-03T09:12:44;97664.25;;;33.49;27.71
70506;BME280;58032;49.820;6.274;2022-08-03T09:15:18;97669.06;;;32.56;28.57
70506;BME280;58032;49.820;6.274;2022-08-03T09:17:46;97673.75;;;32.22;29.17
70506;BME280;58032;49.820;6.274;2022-08-03T09:20:16;97676.44;;;31.46;31.96
70506;BME280;58032;49.820;6.274;2022-08-03T09:25:42;97667.78;;;29.97;33.05
70506;BME280;58032;49.820;6.274;2022-08-03T09:28:14;97670.41;;;29.78;32.99
70506;BME280;58032;49.820;6.274;2022-08-03T09:30:45;97663.19;;;29.61;33.25
70506;BME280;58032;49.820;6.274;2022-08-03T09:33:23;97667.59;;;29.62;34.05
70506;BME280;58032;49.820;6.274;2022-08-03T09:35:50;97667.22;;;28.84;34.66
70506;BME280;58032;49.820;6.274;2022-08-03T09:38:21;97666.44;;;29.32;34.50
70506;BME280;58032;49.820;6.274;2022-08-03T09:40:50;97669.78;;;29.13;32.96
70506;BME280;58032;49.820;6.274;2022-08-03T09:43:19;97660.81;;;29.67;32.53
70506;BME280;58032;49.820;6.274;2022-08-03T09:45:46;97658.91;;;29.62;32.93
70506;BME280;58032;49.820;6.274;2022-08-03T09:50:53;97653.25;;;29.72;33.30
70506;BME280;58032;49.820;6.274;2022-08-03T09:53:21;97657.63;;;29.56;32.56
70506;BME280;58032;49.820;6.274;2022-08-03T09:55:53;97654.19;;;29.75;33.34
70506;BME280;58032;49.820;6.274;2022-08-03T09:58:22;97661.69;;;29.78;32.45
70506;BME280;58032;49.820;6.274;2022-08-03T10:01:04;97653.53;;;29.18;33.07
70506;BME280;58032;49.820;6.274;2022-08-03T10:03:34;97648.94;;;29.48;32.95
70506;BME280;58032;49.820;6.274;2022-08-03T10:06:14;97647.97;;;29.78;33.03
70506;BME280;58032;49.820;6.274;2022-08-03T10:08:42;97648.53;;;29.51;32.95
70506;BME280;58032;49.820;6.274;2022-08-03T10:11:09;97655.50;;;29.15;33.24
70506;BME280;58032;49.820;6.274;2022-08-03T10:13:37;97641.66;;;29.39;33.00
70506;BME280;58032;49.820;6.274;2022-08-03T10:16:05;97636.63;;;29.40;33.11
70506;BME280;58032;49.820;6.274;2022-08-03T10:18:34;97640.50;;;29.42;32.66
70506;BME280;58032;49.820;6.274;2022-08-03T10:21:07;97636.94;;;29.51;33.38
70506;BME280;58032;49.820;6.274;2022-08-03T10:23:37;97646.59;;;29.54;33.88
70506;BME280;58032;49.820;6.274;2022-08-03T10:26:06;97637.06;;;29.87;33.91
70506;BME280;58032;49.820;6.274;2022-08-03T10:28:44;97630.38;;;29.51;33.06
70506;BME280;58032;49.820;6.274;2022-08-03T10:31:13;97623.50;;;29.64;32.58
70506;BME280;58032;49.820;6.274;2022-08-03T10:33:43;97629.06;;;29.69;32.08
70506;BME280;58032;49.820;6.274;2022-08-03T10:36:12;97631.69;;;29.83;31.72
70506;BME280;58032;49.820;6.274;2022-08-03T10:38:44;97634.34;;;29.30;33.06
70506;BME280;58032;49.820;6.274;2022-08-03T10:41:14;97617.16;;;29.25;33.14
70506;BME280;58032;49.820;6.274;2022-08-03T10:43:53;97625.22;;;29.67;33.43
70506;BME280;58032;49.820;6.274;2022-08-03T10:46:22;97613.31;;;29.55;33.13
70506;BME280;58032;49.820;6.274;2022-08-03T10:48:50;97614.34;;;30.18;32.47
70506;BME280;58032;49.820;6.274;2022-08-03T10:51:19;97608.09;;;30.04;31.94
70506;BME280;58032;49.820;6.274;2022-08-03T10:53:46;97605.13;;;30.12;30.62
70506;BME280;58032;49.820;6.274;2022-08-03T10:59:19;97605.38;;;30.06;31.84
70506;BME280;58032;49.820;6.274;2022-08-03T11:02:06;97608.53;;;30.18;31.80
70506;BME280;58032;49.820;6.274;2022-08-03T11:04:35;97608.91;;;30.22;31.56
70506;BME280;58032;49.820;6.274;2022-08-03T11:09:44;97598.00;;;30.05;31.66
70506;BME280;58032;49.820;6.274;2022-08-03T11:12:26;97602.06;;;30.45;31.24
70506;BME280;58032;49.820;6.274;2022-08-03T11:14:55;97605.56;;;30.43;30.40
70506;BME280;58032;49.820;6.274;2022-08-03T11:17:23;97598.88;;;30.15;31.19
70506;BME280;58032;49.820;6.274;2022-08-03T11:19:52;97602.41;;;30.49;31.36
70506;BME280;58032;49.820;6.274;2022-08-03T11:22:49;97595.75;;;30.56;30.58
70506;BME280;58032;49.820;6.274;2022-08-03T11:25:20;97592.59;;;30.27;30.35
70506;BME280;58032;49.820;6.274;2022-08-03T11:27:47;97590.19;;;30.51;30.78
70506;BME280;58032;49.820;6.274;2022-08-03T11:40:44;97583.00;;;30.69;31.52
70506;BME280;58032;49.820;6.274;2022-08-03T11:48:36;97583.50;;;30.75;30.13
70506;BME280;58032;49.820;6.274;2022-08-03T11:51:06;97580.97;;;30.79;30.17
70506;BME280;58032;49.820;6.274;2022-08-03T11:53:44;97582.25;;;30.69;30.49
70506;BME280;58032;49.820;6.274;2022-08-03T11:56:13;97572.72;;;30.86;31.12
70506;BME280;58032;49.820;6.274;2022-08-03T11:58:48;97569.44;;;30.99;29.79
70506;BME280;58032;49.820;6.274;2022-08-03T12:01:15;97573.19;;;30.12;30.91
70506;BME280;58032;49.820;6.274;2022-08-03T12:03:49;97572.19;;;30.97;29.75
70506;BME280;58032;49.820;6.274;2022-08-03T12:06:17;97574.63;;;31.01;28.70
70506;BME280;58032;49.820;6.274;2022-08-03T12:08:45;97577.72;;;31.03;28.40
70506;BME280;58032;49.820;6.274;2022-08-03T12:11:14;97569.72;;;31.21;28.03
70506;BME280;58032;49.820;6.274;2022-08-03T12:13:47;97565.66;;;31.06;28.32
70506;BME280;58032;49.820;6.274;2022-08-03T12:16:24;97564.13;;;31.33;28.68
70506;BME280;58032;49.820;6.274;2022-08-03T12:21:23;97574.88;;;31.13;28.13
70506;BME280;58032;49.820;6.274;2022-08-03T12:23:55;97566.56;;;31.26;28.83
70506;BME280;58032;49.820;6.274;2022-08-03T12:26:25;97562.38;;;31.94;27.22
70506;BME280;58032;49.820;6.274;2022-08-03T12:28:52;97552.00;;;32.79;26.66
70506;BME280;58032;49.820;6.274;2022-08-03T12:31:19;97551.59;;;33.14;24.45
70506;BME280;58032;49.820;6.274;2022-08-03T12:36:25;97551.78;;;35.69;23.19
70506;BME280;58032;49.820;6.274;2022-08-03T12:38:57;97548.31;;;36.58;21.31
70506;BME280;58032;49.820;6.274;2022-08-03T12:41:36;97545.13;;;35.33;22.34
70506;BME280;58032;49.820;6.274;2022-08-03T12:44:05;97543.19;;;36.70;21.44
70506;BME280;58032;49.820;6.274;2022-08-03T12:46:35;97544.16;;;36.37;20.95
70506;BME280;58032;49.820;6.274;2022-08-03T12:49:07;97540.06;;;36.80;20.49
70506;BME280;58032;49.820;6.274;2022-08-03T12:51:57;97544.13;;;34.06;23.35
70506;BME280;58032;49.820;6.274;2022-08-03T12:54:27;97544.41;;;33.88;23.14
70506;BME280;58032;49.820;6.274;2022-08-03T12:57:04;97542.75;;;36.38;21.21
70506;BME280;58032;49.820;6.274;2022-08-03T12:59:33;97541.16;;;36.23;21.44
70506;BME280;58032;49.820;6.274;2022-08-03T13:02:03;97537.13;;;35.33;22.11
70506;BME280;58032;49.820;6.274;2022-08-03T13:04:34;97543.53;;;36.77;20.55
70506;BME280;58032;49.820;6.274;2022-08-03T13:07:05;97538.31;;;37.41;20.29
70506;BME280;58032;49.820;6.274;2022-08-03T13:12:17;97543.69;;;36.67;19.73
70506;BME280;58032;49.820;6.274;2022-08-03T13:14:47;97534.22;;;38.89;18.53
70506;BME280;58032;49.820;6.274;2022-08-03T13:17:15;97531.31;;;37.34;19.84
70506;BME280;58032;49.820;6.274;2022-08-03T13:19:46;97534.72;;;37.56;19.47
70506;BME280;58032;49.820;6.274;2022-08-03T13:22:25;97533.75;;;39.25;17.66
70506;BME280;58032;49.820;6.274;2022-08-03T13:24:54;97527.22;;;38.67;17.99
70506;BME280;58032;49.820;6.274;2022-08-03T13:27:23;97530.59;;;37.75;18.75
70506;BME280;58032;49.820;6.274;2022-08-03T13:29:50;97513.63;;;38.01;19.19
70506;BME280;58032;49.820;6.274;2022-08-03T13:32:18;97522.09;;;37.00;19.76
70506;BME280;58032;49.820;6.274;2022-08-03T13:34:46;97515.59;;;36.75;20.30
70506;BME280;58032;49.820;6.274;2022-08-03T13:37:14;97530.72;;;36.58;20.86
70506;BME280;58032;49.820;6.274;2022-08-03T13:39:42;97517.34;;;37.06;19.38
70506;BME280;58032;49.820;6.274;2022-08-03T13:42:09;97508.66;;;38.78;18.83
70506;BME280;58032;49.820;6.274;2022-08-03T13:44:36;97514.28;;;37.86;19.19
70506;BME280;58032;49.820;6.274;2022-08-03T13:47:03;97511.53;;;36.43;20.67
70506;BME280;58032;49.820;6.274;2022-08-03T13:49:30;97517.19;;;36.65;19.58
70506;BME280;58032;49.820;6.274;2022-08-03T13:51:58;97511.75;;;38.22;18.77
70506;BME280;58032;49.820;6.274;2022-08-03T13:54:26;97502.63;;;37.74;19.87
70506;BME280;58032;49.820;6.274;2022-08-03T13:56:53;97502.22;;;37.52;19.47
70506;BME280;58032;49.820;6.274;2022-08-03T13:59:23;97491.81;;;39.10;18.87
70506;BME280;58032;49.820;6.274;2022-08-03T14:01:51;97492.09;;;38.71;18.60
70506;BME280;58032;49.820;6.274;2022-08-03T14:04:20;97489.16;;;37.83;19.81
70506;BME280;58032;49.820;6.274;2022-08-03T14:06:48;97493.47;;;38.54;19.88
70506;BME280;58032;49.820;6.274;2022-08-03T14:09:15;97482.13;;;37.06;19.71
70506;BME280;58032;49.820;6.274;2022-08-03T14:11:43;97481.72;;;37.12;20.23
70506;BME280;58032;49.820;6.274;2022-08-03T14:14:11;97480.56;;;36.66;20.36
70506;BME280;58032;49.820;6.274;2022-08-03T14:16:39;97478.91;;;36.63;20.14
70506;BME280;58032;49.820;6.274;2022-08-03T14:19:06;97476.00;;;37.42;19.80
70506;BME280;58032;49.820;6.274;2022-08-03T14:21:33;97480.41;;;37.29;19.72
70506;BME280;58032;49.820;6.274;2022-08-03T14:24:01;97472.56;;;37.20;20.17
70506;BME280;58032;49.820;6.274;2022-08-03T14:26:28;97474.00;;;38.03;19.17
70506;BME280;58032;49.820;6.274;2022-08-03T14:28:56;97465.91;;;38.31;19.50
70506;BME280;58032;49.820;6.274;2022-08-03T14:31:23;97471.88;;;38.33;18.75
70506;BME280;58032;49.820;6.274;2022-08-03T14:33:50;97462.94;;;37.59;19.29
70506;BME280;58032;49.820;6.274;2022-08-03T14:36:17;97464.66;;;37.64;19.62
70506;BME280;58032;49.820;6.274;2022-08-03T14:38:44;97470.78;;;36.61;20.65
70506;BME280;58032;49.820;6.274;2022-08-03T14:41:12;97469.78;;;36.19;20.81
70506;BME280;58032;49.820;6.274;2022-08-03T14:43:39;97462.28;;;37.47;19.57
70506;BME280;58032;49.820;6.274;2022-08-03T14:46:06;97456.06;;;36.47;20.70
70506;BME280;58032;49.820;6.274;2022-08-03T14:48:33;97460.97;;;35.93;21.50
70506;BME280;58032;49.820;6.274;2022-08-03T14:51:00;97455.19;;;33.97;24.17
70506;BME280;58032;49.820;6.274;2022-08-03T14:53:27;97453.41;;;34.59;23.55
70506;BME280;58032;49.820;6.274;2022-08-03T14:55:55;97453.56;;;34.73;22.95
70506;BME280;58032;49.820;6.274;2022-08-03T14:58:23;97449.06;;;34.27;22.62
70506;BME280;58032;49.820;6.274;2022-08-03T15:00:54;97451.75;;;33.26;25.01
70506;BME280;58032;49.820;6.274;2022-08-03T15:03:23;97448.88;;;33.16;24.87
70506;BME280;58032;49.820;6.274;2022-08-03T15:05:51;97439.56;;;33.08;23.68
70506;BME280;58032;49.820;6.274;2022-08-03T15:08:20;97434.06;;;34.20;23.37
70506;BME280;58032;49.820;6.274;2022-08-03T15:10:48;97432.75;;;35.14;22.24
70506;BME280;58032;49.820;6.274;2022-08-03T15:13:16;97444.59;;;34.93;22.26
70506;BME280;58032;49.820;6.274;2022-08-03T15:15:44;97439.66;;;36.04;20.56
70506;BME280;58032;49.820;6.274;2022-08-03T15:18:11;97436.00;;;35.92;21.95
70506;BME280;58032;49.820;6.274;2022-08-03T15:20:38;97420.03;;;35.57;21.52
70506;BME280;58032;49.820;6.274;2022-08-03T15:23:10;97414.81;;;35.32;22.48
70506;BME280;58032;49.820;6.274;2022-08-03T15:25:37;97428.28;;;34.90;22.58
70506;BME280;58032;49.820;6.274;2022-08-03T15:28:04;97421.66;;;34.77;23.10
70506;BME280;58032;49.820;6.274;2022-08-03T15:30:31;97415.34;;;34.02;23.63
70506;BME280;58032;49.820;6.274;2022-08-03T15:33:02;97418.13;;;34.91;22.25
70506;BME280;58032;49.820;6.274;2022-08-03T15:35:29;97407.69;;;35.11;21.42
70506;BME280;58032;49.820;6.274;2022-08-03T15:37:56;97402.09;;;35.27;21.56
70506;BME280;58032;49.820;6.274;2022-08-03T15:40:23;97409.31;;;34.67;22.23
70506;BME280;58032;49.820;6.274;2022-08-03T15:42:50;97403.34;;;35.60;21.96
70506;BME280;58032;49.820;6.274;2022-08-03T15:45:17;97402.72;;;35.14;20.79
70506;BME280;58032;49.820;6.274;2022-08-03T15:47:44;97396.47;;;35.31;22.04
70506;BME280;58032;49.820;6.274;2022-08-03T15:50:11;97401.19;;;35.48;22.01
70506;BME280;58032;49.820;6.274;2022-08-03T15:52:40;97400.91;;;34.85;22.07
70506;BME280;58032;49.820;6.274;2022-08-03T15:55:10;97389.00;;;35.16;22.14
70506;BME280;58032;49.820;6.274;2022-08-03T15:57:48;97400.19;;;35.08;22.19
70506;BME280;58032;49.820;6.274;2022-08-03T16:00:23;97388.84;;;35.38;21.53
70506;BME280;58032;49.820;6.274;2022-08-03T16:03:15;97396.50;;;35.43;21.68
70506;BME280;58032;49.820;6.274;2022-08-03T16:05:51;97388.00;;;35.00;21.82
70506;BME280;58032;49.820;6.274;2022-08-03T16:08:33;97393.56;;;35.08;21.60
70506;BME280;58032;49.820;6.274;2022-08-03T16:11:15;97394.06;;;35.52;21.37
70506;BME280;58032;49.820;6.274;2022-08-03T16:13:52;97389.38;;;35.23;22.27
70506;BME280;58032;49.820;6.274;2022-08-03T16:16:44;97391.28;;;35.79;22.16
70506;BME280;58032;49.820;6.274;2022-08-03T16:19:32;97394.81;;;36.02;21.04
70506;BME280;58032;49.820;6.274;2022-08-03T16:22:02;97384.44;;;36.12;20.96
70506;BME280;58032;49.820;6.274;2022-08-03T16:24:36;97385.88;;;35.62;22.09
70506;BME280;58032;49.820;6.274;2022-08-03T16:27:10;97384.66;;;35.41;21.77
70506;BME280;58032;49.820;6.274;2022-08-03T16:29:40;97380.22;;;35.05;22.52
70506;BME280;58032;49.820;6.274;2022-08-03T16:32:07;97387.84;;;34.98;22.63
70506;BME280;58032;49.820;6.274;2022-08-03T16:34:38;97390.47;;;34.58;22.85
70506;BME280;58032;49.820;6.274;2022-08-03T16:37:21;97387.81;;;34.74;22.36
70506;BME280;58032;49.820;6.274;2022-08-03T16:40:05;97383.84;;;34.58;23.16
70506;BME280;58032;49.820;6.274;2022-08-03T16:42:35;97386.28;;;34.73;22.53
70506;BME280;58032;49.820;6.274;2022-08-03T16:45:04;97386.06;;;34.81;23.02
70506;BME280;58032;49.820;6.274;2022-08-03T16:47:31;97379.81;;;34.86;23.12
70506;BME280;58032;49.820;6.274;2022-08-03T16:49:59;97378.69;;;34.92;22.36
70506;BME280;58032;49.820;6.274;2022-08-03T16:52:27;97387.34;;;34.90;22.48
70506;BME280;58032;49.820;6.274;2022-08-03T16:54:54;97386.31;;;34.28;23.80
70506;BME280;58032;49.820;6.274;2022-08-03T16:57:21;97380.03;;;33.54;24.03
70506;BME280;58032;49.820;6.274;2022-08-03T16:59:49;97389.06;;;34.47;23.54
70506;BME280;58032;49.820;6.274;2022-08-03T17:02:26;97383.63;;;34.65;22.77
70506;BME280;58032;49.820;6.274;2022-08-03T17:04:55;97380.91;;;34.46;23.48
70506;BME280;58032;49.820;6.274;2022-08-03T17:07:22;97391.53;;;34.86;22.89
70506;BME280;58032;49.820;6.274;2022-08-03T17:09:49;97377.91;;;35.03;23.27
70506;BME280;58032;49.820;6.274;2022-08-03T17:12:16;97386.69;;;34.91;23.34
70506;BME280;58032;49.820;6.274;2022-08-03T17:14:43;97373.50;;;35.02;23.00
70506;BME280;58032;49.820;6.274;2022-08-03T17:17:16;97383.25;;;34.59;23.44
70506;BME280;58032;49.820;6.274;2022-08-03T17:19:43;97380.91;;;34.46;24.05
70506;BME280;58032;49.820;6.274;2022-08-03T17:22:14;97382.09;;;33.42;24.51
70506;BME280;58032;49.820;6.274;2022-08-03T17:24:45;97366.25;;;33.67;24.97
70506;BME280;58032;49.820;6.274;2022-08-03T17:27:17;97375.72;;;34.11;24.56
70506;BME280;58032;49.820;6.274;2022-08-03T17:29:46;97368.06;;;33.93;24.33
70506;BME280;58032;49.820;6.274;2022-08-03T17:32:15;97367.34;;;33.83;23.86
70506;BME280;58032;49.820;6.274;2022-08-03T17:34:47;97367.84;;;33.58;24.20
70506;BME280;58032;49.820;6.274;2022-08-03T17:37:15;97367.06;;;34.01;23.00
70506;BME280;58032;49.820;6.274;2022-08-03T17:39:42;97366.81;;;33.53;25.25
70506;BME280;58032;49.820;6.274;2022-08-03T17:42:26;97362.56;;;33.88;25.23
70506;BME280;58032;49.820;6.274;2022-08-03T17:44:54;97371.91;;;33.21;25.82
70506;BME280;58032;49.820;6.274;2022-08-03T17:47:21;97368.19;;;33.30;24.63
70506;BME280;58032;49.820;6.274;2022-08-03T17:49:48;97376.13;;;33.08;26.00
70506;BME280;58032;49.820;6.274;2022-08-03T17:52:22;97383.19;;;32.03;25.99
70506;BME280;58032;49.820;6.274;2022-08-03T17:57:48;97378.28;;;31.56;26.90
70506;BME280;58032;49.820;6.274;2022-08-03T18:00:18;97377.84;;;31.99;25.79
70506;BME280;58032;49.820;6.274;2022-08-03T18:05:49;97385.06;;;31.88;29.08
70506;BME280;58032;49.820;6.274;2022-08-03T18:08:22;97377.53;;;31.56;30.81
70506;BME280;58032;49.820;6.274;2022-08-03T18:10:56;97382.38;;;31.24;30.68
70506;BME280;58032;49.820;6.274;2022-08-03T18:13:29;97384.72;;;30.98;30.35
70506;BME280;58032;49.820;6.274;2022-08-03T18:16:02;97383.81;;;30.95;31.05
70506;BME280;58032;49.820;6.274;2022-08-03T18:18:34;97386.94;;;30.70;31.67
70506;BME280;58032;49.820;6.274;2022-08-03T18:21:03;97391.16;;;30.59;30.80
70506;BME280;58032;49.820;6.274;2022-08-03T18:23:31;97381.13;;;30.43;31.24
70506;BME280;58032;49.820;6.274;2022-08-03T18:26:00;97382.59;;;30.34;31.91
70506;BME280;58032;49.820;6.274;2022-08-03T18:28:29;97385.94;;;30.30;31.60
70506;BME280;58032;49.820;6.274;2022-08-03T18:30:56;97377.34;;;30.05;31.89
70506;BME280;58032;49.820;6.274;2022-08-03T18:33:24;97388.91;;;29.78;34.61
70506;BME280;58032;49.820;6.274;2022-08-03T18:35:56;97391.38;;;29.46;33.82
70506;BME280;58032;49.820;6.274;2022-08-03T18:38:24;97395.00;;;29.29;34.15
70506;BME280;58032;49.820;6.274;2022-08-03T18:40:51;97387.13;;;29.04;34.10
70506;BME280;58032;49.820;6.274;2022-08-03T18:43:18;97393.22;;;28.91;34.34
70506;BME280;58032;49.820;6.274;2022-08-03T18:45:50;97385.41;;;28.76;35.01
70506;BME280;58032;49.820;6.274;2022-08-03T18:48:31;97391.09;;;28.58;35.42
70506;BME280;58032;49.820;6.274;2022-08-03T18:51:09;97393.09;;;28.23;36.67
70506;BME280;58032;49.820;6.274;2022-08-03T18:53:43;97391.28;;;27.87;36.65
70506;BME280;58032;49.820;6.274;2022-08-03T19:01:42;97395.72;;;26.93;40.01
70506;BME280;58032;49.820;6.274;2022-08-03T19:07:06;97387.38;;;26.43;41.51
70506;BME280;58032;49.820;6.274;2022-08-03T19:09:50;97403.28;;;26.20;42.79
70506;BME280;58032;49.820;6.274;2022-08-03T19:12:22;97399.94;;;26.01;43.18
70506;BME280;58032;49.820;6.274;2022-08-03T19:14:59;97400.41;;;25.84;44.21
70506;BME280;58032;49.820;6.274;2022-08-03T19:17:27;97404.94;;;25.64;43.61
70506;BME280;58032;49.820;6.274;2022-08-03T19:19:56;97406.41;;;25.49;43.31
70506;BME280;58032;49.820;6.274;2022-08-03T19:22:24;97400.16;;;25.37;43.76
70506;BME280;58032;49.820;6.274;2022-08-03T19:24:53;97408.53;;;25.27;44.51
70506;BME280;58032;49.820;6.274;2022-08-03T19:27:21;97402.75;;;25.20;43.91
70506;BME280;58032;49.820;6.274;2022-08-03T19:29:50;97407.25;;;25.07;44.06
70506;BME280;58032;49.820;6.274;2022-08-03T19:32:17;97413.31;;;24.96;44.55
70506;BME280;58032;49.820;6.274;2022-08-03T19:34:49;97419.00;;;24.88;44.82
70506;BME280;58032;49.820;6.274;2022-08-03T19:37:16;97410.84;;;24.79;44.33
70506;BME280;58032;49.820;6.274;2022-08-03T19:39:43;97416.56;;;24.71;45.82
70506;BME280;58032;49.820;6.274;2022-08-03T19:42:13;97421.38;;;24.55;45.69
70506;BME280;58032;49.820;6.274;2022-08-03T19:44:49;97415.13;;;24.43;47.15
70506;BME280;58032;49.820;6.274;2022-08-03T19:47:27;97413.06;;;24.30;48.18
70506;BME280;58032;49.820;6.274;2022-08-03T19:49:56;97417.66;;;24.12;48.40
70506;BME280;58032;49.820;6.274;2022-08-03T19:52:26;97408.38;;;23.93;48.55
70506;BME280;58032;49.820;6.274;2022-08-03T19:54:55;97421.16;;;23.70;50.01
70506;BME280;58032;49.820;6.274;2022-08-03T19:57:23;97421.28;;;23.51;50.60
70506;BME280;58032;49.820;6.274;2022-08-03T19:59:55;97420.25;;;23.35;51.42
70506;BME280;58032;49.820;6.274;2022-08-03T20:02:22;97422.16;;;23.19;51.42
70506;BME280;58032;49.820;6.274;2022-08-03T20:04:50;97421.78;;;23.10;51.20
70506;BME280;58032;49.820;6.274;2022-08-03T20:07:17;97418.78;;;23.02;50.88
70506;BME280;58032;49.820;6.274;2022-08-03T20:09:48;97418.88;;;22.96;50.55
70506;BME280;58032;49.820;6.274;2022-08-03T20:12:15;97422.38;;;22.89;51.02
70506;BME280;58032;49.820;6.274;2022-08-03T20:14:44;97415.97;;;22.83;51.32
70506;BME280;58032;49.820;6.274;2022-08-03T20:17:11;97411.44;;;22.74;51.11
70506;BME280;58032;49.820;6.274;2022-08-03T20:19:38;97422.00;;;22.66;51.17
70506;BME280;58032;49.820;6.274;2022-08-03T20:22:08;97420.53;;;22.59;51.29